Ivano-Frankivs'k, Ukraine

7:23 PM EEST on July 28, 2014 (GMT +0300)
Ivano-Frankivs'k (UKLI) Elev 919 ft | 48.88 °N, 24.69 °E | Change Station

Current weather conditions updated 23 minutes ago

Mostly Cloudy
Mostly Cloudy
79 °F
Feels Like 79 °F
N
7
Wind Variable Wind from South

Tomorrow is forecast to be Cooler than today.

Today
High -- | Low -- °F
--% Chance of Precip.
Yesterday
High -- | Low -- °F
Precip. -- in
5:48 AM 9:05 PM
Waxing Crescent, 3% visible
Pressure 29.95 in
Visibility 6.2 miles
Clouds Scattered Clouds 3000 ft
Mostly Cloudy 4000 ft
Mostly Cloudy 10000 ft
Dew Point 63 °F
Humidity 57%
Rainfall 0.00 in
Snow Depth Not available.
UV 1 out of 12
Pollen Not available.
Air Quality Not available.
Flu Activity Not available.
METAR UKLI 281600Z 19003MPS 160V220 9999 VCTS SCT030CB BKN040 BKN100 26/17 Q1014 NOSIG

More Conditions Fewer Conditions

Pressure 29.95 in
Visibility 6.2 miles
Clouds Scattered Clouds 3000 ft
Mostly Cloudy 4000 ft
Mostly Cloudy 10000 ft
Dew Point 63 °F
Humidity 57%
Rainfall 0.00 in
Snow Depth Not available.
UV 1 out of 12
Pollen Not available.
Air Quality Not available.
Flu Activity Not available.
METAR UKLI 281600Z 19003MPS 160V220 9999 VCTS SCT030CB BKN040 BKN100 26/17 Q1014 NOSIG

More Conditions Fewer Conditions

10-Day Weather Forecast

Almanac

Astronomy

Jul. 28, 2014 Rise Set
Actual Time 5:48 AM EEST 9:05 PM EEST
Civil Twilight 5:10 AM EEST 9:43 PM EEST
Nautical Twilight 4:20 AM EEST 10:33 PM EEST
Astronomical Twilight 3:14 AM EEST 11:38 PM EEST
Moon 7:25 AM EEST 9:22 PM EEST
Length of Visible Light 16h 33m
Length of Day
15h 17m
Tomorrow will be 2m 40s shorter.
Waxing Crescent, 3% of the Moon is Illuminated
Today
Waxing Crescent
Aug 3
First Quarter
Aug 10
Full
Aug 17
Last Quarter
Aug 25
New

Today's Extremes

Country Highs Country Lows

Community

WunderPhotos

Upload Photos

1,738,401 photos uploaded!

WunderBlogs® & News

Nearby

Snow Depth

Not available.

Earthquake Activity

City Distance Mag. Time & Date
No recent earthquake activity has been reported nearby.
Minimum magnitude displayed is 2.5.

Coastal Water Temperatures

Place Temperature
No Stations Reporting

Nearby Weather Stations

There are no personal weather stations in this area.